Main page
METAR-TAF:

METAR-TAF

Airports :

Current weather observation

The report was made 15 minutes ago, at 17:00 UTC
Wind 4 kt from the East
Temperature 8°C
Humidity 61%
Pressure 1030 hPa
Visibility 10 km or more
Clear sky

METAR: LBPG 251700Z 08004KT 9999 SKC 08/01 Q1030

Time: 17:15 (17:15 UTC)

Forecast

The report was made 12 hours and 15 minutes ago, at 05:00 UTC
Forecast valid from 25 at 06 UTC to 25 at 18 UTC
Wind 5 kt from the East with gusts up to 09 kt, varying between East/Northeast and East/Southeast
Visibility 10 km or more
Few clouds at a height of 4000 ft

TAF: LBPG 250500Z 2506/2518 10005G09KT 060V120 9999 FEW040 BY LBSA

Weather observations and forecasts of more than 4000 airports (METAR and TAF reports).

The available stations are represented by yellow and red dots on the map.

Hover mouse over dot to see the name of the station.

Then click to see weather observations and forecasts.

To change the map : click on the green buttons with a black cross to zoom in, on the green button with a dash to zoom out, or on the green arrows for adjacent maps.


METAR-TAF: